TimePDT,TemperatureF,Dew PointF,Humidity,Sea Level PressureIn,VisibilityMPH,Wind Direction,Wind SpeedMPH,Gust SpeedMPH,PrecipitationIn,Events,Conditions,WindDirDegrees,DateUTC
12:55 AM,62.8,62.8,100,29.94,10.0,Calm,Calm,-,N/A,,Clear,0,2012-10-08 07:55:00
1:55 AM,62.6,62.6,100,29.94,10.0,East,3.5,-,N/A,,Clear,100,2012-10-08 08:55:00
2:55 AM,62.1,62.1,100,29.94,10.0,ENE,3.5,-,N/A,,Clear,60,2012-10-08 09:55:00
3:55 AM,60.8,60.6,99,29.94,10.0,Calm,Calm,-,N/A,,Clear,0,2012-10-08 10:55:00
4:55 AM,59.4,59.4,100,29.94,10.0,Calm,Calm,-,N/A,,Clear,0,2012-10-08 11:55:00
5:55 AM,60.4,60.4,100,29.95,10.0,Calm,Calm,-,N/A,,Partly Cloudy,0,2012-10-08 12:55:00
6:19 AM,62.6,62.6,100,29.96,10.0,Calm,Calm,-,N/A,,Mostly Cloudy,0,2012-10-08 13:19:00
6:55 AM,63.7,63.7,100,29.96,10.0,SE,3.5,-,N/A,,Overcast,140,2012-10-08 13:55:00
7:55 AM,66.6,66.0,98,29.98,10.0,Calm,Calm,-,N/A,,Overcast,0,2012-10-08 14:55:00
8:55 AM,68.4,64.0,86,29.99,10.0,Calm,Calm,-,N/A,,Overcast,0,2012-10-08 15:55:00
9:55 AM,69.6,63.0,79,29.99,10.0,Calm,Calm,-,N/A,,Overcast,0,2012-10-08 16:55:00
10:55 AM,71.4,63.3,76,29.98,10.0,Calm,Calm,-,N/A,,Overcast,0,2012-10-08 17:55:00
11:55 AM,72.9,64.9,76,29.97,10.0,SSW,5.8,-,N/A,,Overcast,210,2012-10-08 18:55:00
12:38 PM,73.4,64.4,73,29.97,10.0,SW,8.1,-,N/A,,Scattered Clouds,230,2012-10-08 19:38:00
12:45 PM,73.4,64.4,73,29.96,10.0,South,6.9,-,N/A,,Mostly Cloudy,180,2012-10-08 19:45:00
12:55 PM,75.0,64.6,70,29.96,10.0,West,6.9,-,N/A,,Scattered Clouds,260,2012-10-08 19:55:00
1:55 PM,75.0,64.6,70,29.94,10.0,South,5.8,-,N/A,,Clear,180,2012-10-08 20:55:00
2:55 PM,75.2,64.4,69,29.94,10.0,SSW,8.1,-,N/A,,Clear,210,2012-10-08 21:55:00
3:55 PM,73.9,64.0,71,29.93,10.0,SSW,10.4,-,N/A,,Clear,210,2012-10-08 22:55:00
4:55 PM,72.7,64.0,74,29.94,10.0,SSW,10.4,-,N/A,,Clear,200,2012-10-08 23:55:00
5:55 PM,70.3,64.4,81,29.94,10.0,SSW,8.1,-,N/A,,Clear,210,2012-10-09 00:55:00
6:55 PM,67.5,64.2,89,29.94,10.0,SSW,3.5,-,N/A,,Clear,200,2012-10-09 01:55:00
7:55 PM,66.4,63.7,91,29.96,10.0,WNW,8.1,-,N/A,,Clear,290,2012-10-09 02:55:00
8:55 PM,64.8,62.2,92,29.97,10.0,WNW,3.5,-,N/A,,Clear,290,2012-10-09 03:55:00
9:55 PM,63.7,62.4,96,29.98,10.0,Calm,Calm,-,N/A,,Clear,0,2012-10-09 04:55:00
10:55 PM,62.8,62.4,99,29.98,10.0,Calm,Calm,-,N/A,,Clear,0,2012-10-09 05:55:00
11:55 PM,61.0,60.6,99,29.98,10.0,Calm,Calm,-,N/A,,Clear,0,2012-10-09 06:55:00